createdAt,value
2023-12-08T00:01:15.553Z,3.80
2023-12-08T00:06:17.404Z,3.70
2023-12-08T00:11:19.139Z,3.70
2023-12-08T00:16:20.852Z,3.80
2023-12-08T00:21:22.607Z,3.80
2023-12-08T00:26:24.411Z,3.90
2023-12-08T00:31:26.094Z,4.00
2023-12-08T00:36:28.077Z,3.90
2023-12-08T00:41:29.932Z,4.00
2023-12-08T00:46:32.324Z,4.00
2023-12-08T00:51:34.080Z,4.00
2023-12-08T00:56:35.788Z,3.70
2023-12-08T01:01:37.562Z,3.40
2023-12-08T01:06:39.381Z,3.40
2023-12-08T01:11:41.203Z,3.40
2023-12-08T01:16:43.310Z,3.40
2023-12-08T01:21:44.980Z,3.60
2023-12-08T01:26:47.201Z,3.80
2023-12-08T01:31:48.960Z,3.90
2023-12-08T01:36:50.729Z,3.90
2023-12-08T01:41:52.746Z,4.00
2023-12-08T01:46:54.921Z,4.00
2023-12-08T01:51:56.727Z,4.00
2023-12-08T01:56:59.435Z,3.90
2023-12-08T02:02:01.182Z,3.90
2023-12-08T02:07:03.340Z,4.00
2023-12-08T02:12:06.126Z,4.10
2023-12-08T02:17:17.284Z,3.70
2023-12-08T02:22:19.740Z,3.70
2023-12-08T02:27:21.982Z,3.70
2023-12-08T02:32:35.487Z,3.80
2023-12-08T02:37:40.960Z,4.00
2023-12-08T02:42:42.708Z,3.80
2023-12-08T02:47:44.551Z,3.70
2023-12-08T02:52:46.350Z,3.60
2023-12-08T02:57:48.044Z,3.70
2023-12-08T03:02:49.769Z,3.60
2023-12-08T03:07:51.635Z,3.80
2023-12-08T03:12:53.387Z,3.90
2023-12-08T03:17:55.199Z,3.90
2023-12-08T03:22:57.346Z,4.00
2023-12-08T03:27:59.127Z,4.00
2023-12-08T03:33:01.173Z,4.00
2023-12-08T03:38:02.928Z,3.80
2023-12-08T03:43:04.612Z,3.80
2023-12-08T03:48:06.567Z,3.70
2023-12-08T03:53:08.360Z,3.70
2023-12-08T03:58:10.045Z,3.90
2023-12-08T04:03:11.768Z,3.90
2023-12-08T04:08:13.629Z,4.00
2023-12-08T04:13:15.496Z,4.40
2023-12-08T04:18:17.433Z,4.40
2023-12-08T04:23:19.237Z,5.00
2023-12-08T04:28:21.139Z,5.30
2023-12-08T04:33:23.081Z,5.70
2023-12-08T04:38:24.941Z,5.80
2023-12-08T04:43:26.728Z,5.80
2023-12-08T04:48:29.104Z,5.90
2023-12-08T04:53:30.931Z,5.70
2023-12-08T04:58:32.663Z,5.60
2023-12-08T05:03:34.390Z,5.90
2023-12-08T05:08:37.195Z,6.30
2023-12-08T05:13:39.042Z,6.60
2023-12-08T05:18:41.023Z,6.90
2023-12-08T05:23:42.865Z,7.00
2023-12-08T05:28:44.578Z,7.20
2023-12-08T05:33:46.890Z,7.40
2023-12-08T05:38:48.787Z,7.40
2023-12-08T05:43:50.616Z,7.60
2023-12-08T05:48:52.450Z,7.60
2023-12-08T05:53:54.310Z,7.80
2023-12-08T05:58:56.120Z,7.90
2023-12-08T06:03:57.868Z,7.90
2023-12-08T06:09:00.006Z,7.90
2023-12-08T06:14:02.275Z,8.00
2023-12-08T06:19:05.911Z,8.00
2023-12-08T06:24:07.855Z,8.00
2023-12-08T06:29:09.802Z,8.10
2023-12-08T06:34:16.616Z,8.20
2023-12-08T06:39:19.564Z,8.30
2023-12-08T06:44:21.342Z,8.30
2023-12-08T06:49:23.223Z,8.30
2023-12-08T06:54:24.970Z,8.40
2023-12-08T06:59:26.809Z,8.40
2023-12-08T07:04:28.798Z,8.40
2023-12-08T07:09:30.899Z,8.40
2023-12-08T07:14:33.506Z,8.50
2023-12-08T07:19:35.528Z,8.50
2023-12-08T07:24:40.407Z,8.50
2023-12-08T07:29:42.126Z,8.50
2023-12-08T07:34:43.906Z,8.60
2023-12-08T07:39:46.734Z,8.50
2023-12-08T07:44:48.474Z,8.20
2023-12-08T07:49:50.818Z,7.80
2023-12-08T07:54:52.845Z,7.60
2023-12-08T07:59:55.097Z,7.60
2023-12-08T08:04:56.879Z,7.40
2023-12-08T08:09:58.674Z,7.40
2023-12-08T08:15:00.881Z,7.30
2023-12-08T08:20:02.781Z,7.20
2023-12-08T08:25:05.346Z,7.30
2023-12-08T08:30:07.661Z,7.30
2023-12-08T08:35:09.644Z,7.80
2023-12-08T08:40:11.961Z,7.90
2023-12-08T08:45:13.801Z,8.10
2023-12-08T08:50:15.765Z,8.40
2023-12-08T08:55:17.897Z,8.60
2023-12-08T09:00:19.939Z,8.80
2023-12-08T09:05:22.177Z,8.80
2023-12-08T09:10:24.183Z,9.00
2023-12-08T09:15:26.882Z,9.00
2023-12-08T09:20:28.724Z,9.10
2023-12-08T09:25:30.663Z,9.20
2023-12-08T09:30:32.852Z,9.30
2023-12-08T09:35:34.710Z,9.30
2023-12-08T09:40:38.675Z,9.40
2023-12-08T09:45:42.821Z,9.40
2023-12-08T09:50:45.002Z,9.50
2023-12-08T09:55:48.557Z,9.50
2023-12-08T10:00:50.814Z,9.50
2023-12-08T10:05:55.006Z,9.50
2023-12-08T10:10:56.720Z,9.40
2023-12-08T10:15:59.804Z,9.40
2023-12-08T10:21:20.789Z,9.50
2023-12-08T10:26:25.113Z,9.40
2023-12-08T10:31:27.970Z,9.50
2023-12-08T10:36:29.791Z,9.50
2023-12-08T10:41:31.623Z,9.50
2023-12-08T10:46:33.662Z,9.50
2023-12-08T10:51:36.417Z,9.50
2023-12-08T10:56:38.654Z,9.50
2023-12-08T11:01:42.326Z,9.60
2023-12-08T11:06:54.784Z,9.70
2023-12-08T11:11:59.733Z,9.70
2023-12-08T11:17:07.568Z,9.80
2023-12-08T11:22:10.756Z,9.80
2023-12-08T11:27:19.637Z,9.70
2023-12-08T11:32:36.399Z,9.60
2023-12-08T11:37:40.355Z,9.60
2023-12-08T11:42:47.069Z,9.70
2023-12-08T11:47:49.011Z,9.70
2023-12-08T11:52:51.885Z,9.80
2023-12-08T11:58:02.757Z,9.80
2023-12-08T12:03:09.830Z,9.80
2023-12-08T12:08:15.238Z,9.80
2023-12-08T12:13:20.231Z,9.80
2023-12-08T12:18:24.497Z,9.90
2023-12-08T12:23:26.410Z,9.90
2023-12-08T12:28:28.131Z,9.90
2023-12-08T12:33:30.192Z,9.90
2023-12-08T12:38:31.949Z,9.90
2023-12-08T12:43:33.686Z,10.00
2023-12-08T12:48:35.522Z,9.90
2023-12-08T12:53:47.310Z,9.90
2023-12-08T12:59:09.860Z,9.90
2023-12-08T13:04:11.654Z,10.00
2023-12-08T13:09:27.678Z,10.00
2023-12-08T13:14:29.426Z,10.10
2023-12-08T13:19:31.354Z,10.10
2023-12-08T13:24:33.234Z,10.00
2023-12-08T13:29:34.931Z,10.00
2023-12-08T13:34:37.024Z,10.00
2023-12-08T13:39:38.975Z,10.00
2023-12-08T13:44:40.791Z,9.90
2023-12-08T13:49:48.433Z,10.00
2023-12-08T13:54:50.284Z,9.80
2023-12-08T13:59:53.803Z,9.80
2023-12-08T14:04:55.836Z,9.80
2023-12-08T14:09:57.574Z,9.80
2023-12-08T14:14:59.348Z,9.70
2023-12-08T14:20:01.241Z,9.70
2023-12-08T14:25:03.533Z,9.70
2023-12-08T14:30:06.112Z,9.70
2023-12-08T14:35:15.187Z,9.70
2023-12-08T14:40:25.048Z,9.70
2023-12-08T14:45:26.843Z,9.70
2023-12-08T14:50:30.411Z,9.60
2023-12-08T14:55:32.194Z,9.60
2023-12-08T15:00:34.955Z,9.60
2023-12-08T15:05:40.087Z,9.60
2023-12-08T15:10:41.928Z,9.60
2023-12-08T15:15:48.955Z,9.60
2023-12-08T15:20:53.497Z,9.60
2023-12-08T15:25:55.292Z,9.50
2023-12-08T15:30:57.034Z,9.40
2023-12-08T15:35:59.490Z,9.40
2023-12-08T15:41:03.343Z,9.30
2023-12-08T15:46:08.997Z,9.20
2023-12-08T15:51:14.423Z,9.20
2023-12-08T15:56:16.233Z,9.20
2023-12-08T16:01:19.433Z,9.20
2023-12-08T16:06:21.357Z,9.20
2023-12-08T16:11:30.297Z,9.20
2023-12-08T16:16:32.563Z,9.30
2023-12-08T16:21:35.728Z,9.30
2023-12-08T16:26:37.811Z,9.30
2023-12-08T16:31:40.387Z,9.20
2023-12-08T16:36:42.182Z,9.10
2023-12-08T16:41:48.529Z,9.20
2023-12-08T16:46:50.348Z,9.10
2023-12-08T16:51:52.142Z,9.10
2023-12-08T16:56:54.769Z,9.10
2023-12-08T17:01:57.316Z,9.10
2023-12-08T17:07:00.231Z,9.20
2023-12-08T17:12:02.359Z,9.00
2023-12-08T17:17:04.533Z,9.00
2023-12-08T17:22:06.799Z,9.10
2023-12-08T17:27:08.628Z,9.00
2023-12-08T17:32:10.504Z,8.90
2023-12-08T17:37:12.300Z,8.80
2023-12-08T17:42:14.063Z,8.60
2023-12-08T17:47:15.821Z,8.50
2023-12-08T17:52:21.912Z,8.50
2023-12-08T17:57:23.768Z,8.40
2023-12-08T18:02:25.723Z,8.50
2023-12-08T18:07:27.596Z,8.40
2023-12-08T18:12:29.691Z,8.40
2023-12-08T18:17:31.715Z,8.60
2023-12-08T18:22:34.864Z,8.50
2023-12-08T18:27:48.925Z,8.60
2023-12-08T18:32:58.510Z,8.60
2023-12-08T18:38:00.289Z,8.70
2023-12-08T18:43:02.002Z,8.80
2023-12-08T18:48:04.031Z,8.90
2023-12-08T18:53:05.801Z,8.90
2023-12-08T18:58:08.933Z,9.00
2023-12-08T19:03:10.694Z,8.90
2023-12-08T19:08:12.760Z,8.90
2023-12-08T19:13:14.572Z,8.90
2023-12-08T19:18:16.450Z,8.90
2023-12-08T19:23:18.514Z,8.90
2023-12-08T19:28:20.233Z,8.80
2023-12-08T19:33:25.215Z,8.70
2023-12-08T19:38:27.163Z,8.80
2023-12-08T19:43:29.487Z,8.80
2023-12-08T19:48:31.354Z,8.80
2023-12-08T19:53:33.186Z,8.70
2023-12-08T19:58:34.895Z,8.70
2023-12-08T20:03:36.857Z,8.70
2023-12-08T20:08:38.830Z,8.70
2023-12-08T20:13:40.831Z,8.80
2023-12-08T20:18:42.919Z,8.90
2023-12-08T20:23:44.790Z,8.90
2023-12-08T20:28:46.640Z,9.00
2023-12-08T20:33:49.436Z,9.00
2023-12-08T20:38:51.329Z,9.00
2023-12-08T20:43:53.159Z,8.90
2023-12-08T20:48:55.420Z,8.80
2023-12-08T20:53:57.327Z,8.70
2023-12-08T20:58:59.356Z,8.80
2023-12-08T21:04:01.110Z,8.80
2023-12-08T21:09:03.146Z,8.70
2023-12-08T21:14:06.996Z,8.80
2023-12-08T21:19:09.062Z,8.90
2023-12-08T21:24:10.818Z,8.80
2023-12-08T21:29:12.698Z,8.90
2023-12-08T21:34:15.985Z,8.80
2023-12-08T21:39:17.806Z,8.80
2023-12-08T21:44:23.910Z,8.80
2023-12-08T21:49:33.501Z,8.80
2023-12-08T21:54:35.475Z,8.80
2023-12-08T21:59:37.403Z,8.90
2023-12-08T22:04:39.267Z,8.90
2023-12-08T22:09:41.323Z,9.00
2023-12-08T22:14:43.357Z,9.00
2023-12-08T22:19:45.375Z,9.10
2023-12-08T22:24:47.187Z,8.90
2023-12-08T22:29:49.049Z,8.90
2023-12-08T22:34:52.443Z,9.00
2023-12-08T22:39:54.205Z,9.00
2023-12-08T22:44:56.028Z,8.90
2023-12-08T22:50:00.773Z,8.90
2023-12-08T22:55:04.640Z,8.70
2023-12-08T23:00:09.032Z,8.60
2023-12-08T23:05:10.836Z,8.40
2023-12-08T23:10:12.846Z,8.40
2023-12-08T23:15:14.768Z,8.40
2023-12-08T23:20:16.672Z,8.50
2023-12-08T23:25:18.399Z,8.50
2023-12-08T23:30:20.292Z,8.50
2023-12-08T23:35:22.191Z,8.40
2023-12-08T23:40:23.910Z,8.30
2023-12-08T23:45:25.645Z,8.20
2023-12-08T23:50:27.389Z,8.10
2023-12-08T23:55:29.110Z,7.80
